Aérodrome :
LOGIN :

S'inscrire | Disclaimer

   EN    FR    IT 

 










Légende :    VFR   VFR Marginal   IFR   IFR Intensif   IFR Très Intensif
Visi : 
Plafond : 
>= 8 km
>= 3000ft
5 à 8 km
1000 à 3000 ft
1500m à 5 km
500 à 1000 ft
800 à 1500m
200 à 500 ft
< 800m
< 200 ft
Symboles :   Orages  Brouillard  Fortes neiges  Fortes précipitations  Vent > 20 kt
SIGMETs :   Divers  Orages  Givrage  Turbulence  Onde Orograph.  Cendres Volcan.







- Altitude de l'aérodrome : 162 ft
- Code IATA : BOD
- Voir les cartes d'approche


LFBD - Bordeaux / Merignac

DERNIER METAR :
  • 191430Z AUTO 11005KT 080V150 9999 FEW018 12/07 Q1021 NOSIG

METARs EXPIRÉS :
  • 191400Z AUTO VRB03KT 9999 BKN017 11/07 Q1021 NOSIG
  • 191330Z AUTO 15003KT 100V220 9999 OVC018 12/07 Q1022 NOSIG
  • 191300Z AUTO VRB03KT 9999 OVC017 11/07 Q1022 NOSIG
  • 191230Z AUTO 15003KT 060V220 9999 OVC016 11/07 Q1022 NOSIG
  • 191200Z AUTO 10004KT 050V140 9999 OVC016 11/07 Q1023 NOSIG

TAF TAF LFBD
Valide du 19 à 12h jusqu'au 20 à 18h UTC


191100Z 1912/2018 12005KT 9999 BKN020 TX16/2012Z TN05/2006Z
BECMG 1918/1920 CAVOK
BECMG 2000/2002 3000 BR NSC
TEMPO 2002/2009 0500 FG VV///
ATIS : +33 5 57 92 81 04
Pas de NOTAMs connus pour ce terrain.
1 SIGMET publié pour la FIR Bordeaux (LFBB) :
 
Turbulence forte
LFBB SIGMET 3 VALID 191200/191600 LFPW
LFBB BORDEAUX FIR/UIR SEV TURB FCST WI N4300 W00115 - N4300 W00145 - N4545 W00145 - N4615 W00045 - N4615 E00115 - N4300 W00115 FL180/300 STNR NC=



MET'MAP, la Météo Aéronautique d'un coup d'oeil ! - Copyright ORBIFLY Décembre 2007 - Disclaimer

ORBIFLY MET'MAP TEAM :

Programmation & Développement : Alexandra Zaïnal
Conception & Développement : Baudouin d'Aumeries
Co-Programmation & Développement : Marc-Olivier Méhu
Soutien technique & logistique : Manuel Goepfert

Contact : metmap@orbifly.com




SOURCES & CREDITS :

   NOAA